sensor_id;sensor_type;location;lat;lon;timestamp;P1;durP1;ratioP1;P2;durP2;ratioP2
44270;SDS011;29963;44.594;11.368;2023-12-29T00:00:37;58.70;;;46.28;;
44270;SDS011;29963;44.594;11.368;2023-12-29T00:03:03;62.53;;;47.25;;
44270;SDS011;29963;44.594;11.368;2023-12-29T00:05:29;54.65;;;45.65;;
44270;SDS011;29963;44.594;11.368;2023-12-29T00:07:55;58.67;;;46.00;;
44270;SDS011;29963;44.594;11.368;2023-12-29T00:10:24;60.25;;;46.55;;
44270;SDS011;29963;44.594;11.368;2023-12-29T00:12:50;57.20;;;44.17;;
44270;SDS011;29963;44.594;11.368;2023-12-29T00:15:19;60.90;;;47.17;;
44270;SDS011;29963;44.594;11.368;2023-12-29T00:17:45;56.83;;;46.33;;
44270;SDS011;29963;44.594;11.368;2023-12-29T00:20:11;60.17;;;47.10;;
44270;SDS011;29963;44.594;11.368;2023-12-29T00:22:37;49.70;;;41.63;;
44270;SDS011;29963;44.594;11.368;2023-12-29T00:25:03;67.82;;;47.83;;
44270;SDS011;29963;44.594;11.368;2023-12-29T00:27:29;56.40;;;45.63;;
44270;SDS011;29963;44.594;11.368;2023-12-29T00:29:55;55.25;;;46.08;;
44270;SDS011;29963;44.594;11.368;2023-12-29T00:32:20;61.80;;;45.55;;
44270;SDS011;29963;44.594;11.368;2023-12-29T00:34:49;54.40;;;43.50;;
44270;SDS011;29963;44.594;11.368;2023-12-29T00:37:14;55.13;;;43.55;;
44270;SDS011;29963;44.594;11.368;2023-12-29T00:39:40;61.33;;;45.38;;
44270;SDS011;29963;44.594;11.368;2023-12-29T00:42:06;51.78;;;42.55;;
44270;SDS011;29963;44.594;11.368;2023-12-29T00:44:32;54.45;;;42.15;;
44270;SDS011;29963;44.594;11.368;2023-12-29T00:46:59;53.15;;;40.50;;
44270;SDS011;29963;44.594;11.368;2023-12-29T00:49:25;50.08;;;41.15;;
44270;SDS011;29963;44.594;11.368;2023-12-29T00:51:50;51.47;;;42.25;;
44270;SDS011;29963;44.594;11.368;2023-12-29T00:54:16;53.03;;;42.40;;
44270;SDS011;29963;44.594;11.368;2023-12-29T00:56:47;50.92;;;43.72;;
44270;SDS011;29963;44.594;11.368;2023-12-29T00:59:18;57.50;;;43.70;;
44270;SDS011;29963;44.594;11.368;2023-12-29T01:01:44;57.22;;;43.00;;
44270;SDS011;29963;44.594;11.368;2023-12-29T01:04:13;52.90;;;44.50;;
44270;SDS011;29963;44.594;11.368;2023-12-29T01:06:39;55.85;;;45.05;;
44270;SDS011;29963;44.594;11.368;2023-12-29T01:09:05;52.72;;;43.67;;
44270;SDS011;29963;44.594;11.368;2023-12-29T01:11:33;61.97;;;46.05;;
44270;SDS011;29963;44.594;11.368;2023-12-29T01:13:59;51.50;;;42.38;;
44270;SDS011;29963;44.594;11.368;2023-12-29T01:16:24;52.95;;;42.78;;
44270;SDS011;29963;44.594;11.368;2023-12-29T01:18:50;51.28;;;41.70;;
44270;SDS011;29963;44.594;11.368;2023-12-29T01:21:16;54.83;;;43.42;;
44270;SDS011;29963;44.594;11.368;2023-12-29T01:23:41;55.97;;;42.22;;
44270;SDS011;29963;44.594;11.368;2023-12-29T01:26:07;53.88;;;41.53;;
44270;SDS011;29963;44.594;11.368;2023-12-29T01:28:33;54.35;;;42.03;;
44270;SDS011;29963;44.594;11.368;2023-12-29T01:30:59;58.92;;;41.85;;
44270;SDS011;29963;44.594;11.368;2023-12-29T01:33:25;50.88;;;44.50;;
44270;SDS011;29963;44.594;11.368;2023-12-29T01:35:50;57.28;;;42.55;;
44270;SDS011;29963;44.594;11.368;2023-12-29T01:38:16;50.83;;;39.90;;
44270;SDS011;29963;44.594;11.368;2023-12-29T01:40:42;48.20;;;40.00;;
44270;SDS011;29963;44.594;11.368;2023-12-29T01:43:11;52.22;;;38.47;;
44270;SDS011;29963;44.594;11.368;2023-12-29T01:45:37;47.75;;;39.70;;
44270;SDS011;29963;44.594;11.368;2023-12-29T01:48:03;50.67;;;37.95;;
44270;SDS011;29963;44.594;11.368;2023-12-29T01:50:29;56.97;;;41.92;;
44270;SDS011;29963;44.594;11.368;2023-12-29T01:52:55;54.85;;;41.95;;
44270;SDS011;29963;44.594;11.368;2023-12-29T01:55:22;47.72;;;39.22;;
44270;SDS011;29963;44.594;11.368;2023-12-29T01:57:50;55.17;;;43.72;;
44270;SDS011;29963;44.594;11.368;2023-12-29T02:00:16;60.58;;;45.13;;
44270;SDS011;29963;44.594;11.368;2023-12-29T02:02:43;56.53;;;44.88;;
44270;SDS011;29963;44.594;11.368;2023-12-29T02:05:12;55.78;;;45.75;;
44270;SDS011;29963;44.594;11.368;2023-12-29T02:07:40;61.47;;;47.47;;
44270;SDS011;29963;44.594;11.368;2023-12-29T02:10:06;58.70;;;47.35;;
44270;SDS011;29963;44.594;11.368;2023-12-29T02:12:33;61.33;;;47.63;;
44270;SDS011;29963;44.594;11.368;2023-12-29T02:15:02;61.60;;;49.70;;
44270;SDS011;29963;44.594;11.368;2023-12-29T02:17:35;64.63;;;50.22;;
44270;SDS011;29963;44.594;11.368;2023-12-29T02:20:05;60.20;;;49.03;;
44270;SDS011;29963;44.594;11.368;2023-12-29T02:22:32;64.20;;;51.67;;
44270;SDS011;29963;44.594;11.368;2023-12-29T02:24:58;67.70;;;53.97;;
44270;SDS011;29963;44.594;11.368;2023-12-29T02:33:15;60.90;;;49.38;;
44270;SDS011;29963;44.594;11.368;2023-12-29T02:35:44;58.70;;;49.10;;
44270;SDS011;29963;44.594;11.368;2023-12-29T02:38:11;64.82;;;51.63;;
44270;SDS011;29963;44.594;11.368;2023-12-29T02:40:38;64.25;;;51.22;;
44270;SDS011;29963;44.594;11.368;2023-12-29T02:43:04;69.97;;;53.60;;
44270;SDS011;29963;44.594;11.368;2023-12-29T02:45:30;65.25;;;51.63;;
44270;SDS011;29963;44.594;11.368;2023-12-29T02:47:55;67.13;;;52.63;;
44270;SDS011;29963;44.594;11.368;2023-12-29T02:50:21;71.20;;;51.40;;
44270;SDS011;29963;44.594;11.368;2023-12-29T02:52:47;68.35;;;51.60;;
44270;SDS011;29963;44.594;11.368;2023-12-29T02:55:12;61.50;;;50.90;;
44270;SDS011;29963;44.594;11.368;2023-12-29T02:57:41;62.30;;;49.70;;
44270;SDS011;29963;44.594;11.368;2023-12-29T03:00:07;67.32;;;51.95;;
44270;SDS011;29963;44.594;11.368;2023-12-29T03:02:33;65.50;;;52.33;;
44270;SDS011;29963;44.594;11.368;2023-12-29T03:04:59;63.03;;;50.15;;
44270;SDS011;29963;44.594;11.368;2023-12-29T03:07:28;67.28;;;50.38;;
44270;SDS011;29963;44.594;11.368;2023-12-29T03:09:54;66.75;;;49.50;;
44270;SDS011;29963;44.594;11.368;2023-12-29T03:12:20;57.53;;;48.58;;
44270;SDS011;29963;44.594;11.368;2023-12-29T03:14:46;61.47;;;48.70;;
44270;SDS011;29963;44.594;11.368;2023-12-29T03:17:12;59.72;;;48.45;;
44270;SDS011;29963;44.594;11.368;2023-12-29T03:19:38;62.15;;;47.05;;
44270;SDS011;29963;44.594;11.368;2023-12-29T03:22:03;58.00;;;45.53;;
44270;SDS011;29963;44.594;11.368;2023-12-29T03:24:29;65.03;;;45.47;;
44270;SDS011;29963;44.594;11.368;2023-12-29T03:26:55;53.72;;;42.50;;
44270;SDS011;29963;44.594;11.368;2023-12-29T03:29:21;50.70;;;42.95;;
44270;SDS011;29963;44.594;11.368;2023-12-29T03:31:47;59.45;;;46.95;;
44270;SDS011;29963;44.594;11.368;2023-12-29T03:34:12;58.50;;;44.22;;
44270;SDS011;29963;44.594;11.368;2023-12-29T03:36:38;55.05;;;44.67;;
44270;SDS011;29963;44.594;11.368;2023-12-29T03:39:04;60.85;;;47.72;;
44270;SDS011;29963;44.594;11.368;2023-12-29T03:41:30;57.83;;;46.80;;
44270;SDS011;29963;44.594;11.368;2023-12-29T03:43:55;65.85;;;47.53;;
44270;SDS011;29963;44.594;11.368;2023-12-29T03:46:21;60.25;;;46.92;;
44270;SDS011;29963;44.594;11.368;2023-12-29T03:48:48;58.47;;;47.45;;
44270;SDS011;29963;44.594;11.368;2023-12-29T03:51:14;60.35;;;47.63;;
44270;SDS011;29963;44.594;11.368;2023-12-29T03:53:41;58.35;;;44.60;;
44270;SDS011;29963;44.594;11.368;2023-12-29T03:56:07;61.95;;;46.00;;
44270;SDS011;29963;44.594;11.368;2023-12-29T03:58:34;59.25;;;46.85;;
44270;SDS011;29963;44.594;11.368;2023-12-29T04:01:00;57.22;;;44.75;;
44270;SDS011;29963;44.594;11.368;2023-12-29T04:03:27;48.90;;;40.97;;
44270;SDS011;29963;44.594;11.368;2023-12-29T04:05:55;55.30;;;41.88;;
44270;SDS011;29963;44.594;11.368;2023-12-29T04:08:21;50.20;;;43.63;;
44270;SDS011;29963;44.594;11.368;2023-12-29T04:10:47;52.80;;;43.03;;
44270;SDS011;29963;44.594;11.368;2023-12-29T04:13:13;58.05;;;43.60;;
44270;SDS011;29963;44.594;11.368;2023-12-29T04:15:41;51.90;;;41.25;;
44270;SDS011;29963;44.594;11.368;2023-12-29T04:18:07;46.65;;;39.45;;
44270;SDS011;29963;44.594;11.368;2023-12-29T04:20:33;51.15;;;42.05;;
44270;SDS011;29963;44.594;11.368;2023-12-29T04:22:58;54.65;;;42.67;;
44270;SDS011;29963;44.594;11.368;2023-12-29T04:25:24;48.33;;;39.60;;
44270;SDS011;29963;44.594;11.368;2023-12-29T04:27:50;49.78;;;40.80;;
44270;SDS011;29963;44.594;11.368;2023-12-29T04:30:17;49.85;;;40.88;;
44270;SDS011;29963;44.594;11.368;2023-12-29T04:32:42;51.53;;;42.40;;
44270;SDS011;29963;44.594;11.368;2023-12-29T04:35:08;51.20;;;40.08;;
44270;SDS011;29963;44.594;11.368;2023-12-29T04:37:37;47.97;;;40.10;;
44270;SDS011;29963;44.594;11.368;2023-12-29T04:40:03;46.85;;;40.03;;
44270;SDS011;29963;44.594;11.368;2023-12-29T04:42:30;55.03;;;42.30;;
44270;SDS011;29963;44.594;11.368;2023-12-29T04:44:56;52.70;;;40.67;;
44270;SDS011;29963;44.594;11.368;2023-12-29T04:47:21;54.38;;;42.72;;
44270;SDS011;29963;44.594;11.368;2023-12-29T04:49:47;51.85;;;41.63;;
44270;SDS011;29963;44.594;11.368;2023-12-29T04:52:13;53.28;;;39.85;;
44270;SDS011;29963;44.594;11.368;2023-12-29T04:54:38;51.92;;;42.25;;
44270;SDS011;29963;44.594;11.368;2023-12-29T04:57:04;51.15;;;41.63;;
44270;SDS011;29963;44.594;11.368;2023-12-29T04:59:30;52.92;;;41.90;;
44270;SDS011;29963;44.594;11.368;2023-12-29T05:01:55;55.80;;;43.85;;
44270;SDS011;29963;44.594;11.368;2023-12-29T05:04:21;52.00;;;41.25;;
44270;SDS011;29963;44.594;11.368;2023-12-29T05:06:47;57.50;;;45.15;;
44270;SDS011;29963;44.594;11.368;2023-12-29T05:09:12;53.63;;;43.28;;
44270;SDS011;29963;44.594;11.368;2023-12-29T05:11:38;51.13;;;42.38;;
44270;SDS011;29963;44.594;11.368;2023-12-29T05:14:05;51.88;;;41.33;;
44270;SDS011;29963;44.594;11.368;2023-12-29T05:16:30;53.15;;;42.03;;
44270;SDS011;29963;44.594;11.368;2023-12-29T05:18:56;53.13;;;42.22;;
44270;SDS011;29963;44.594;11.368;2023-12-29T05:21:22;56.72;;;42.00;;
44270;SDS011;29963;44.594;11.368;2023-12-29T05:23:49;53.30;;;42.25;;
44270;SDS011;29963;44.594;11.368;2023-12-29T05:26:15;56.10;;;43.25;;
44270;SDS011;29963;44.594;11.368;2023-12-29T05:28:41;57.60;;;44.55;;
44270;SDS011;29963;44.594;11.368;2023-12-29T05:31:07;52.20;;;42.00;;
44270;SDS011;29963;44.594;11.368;2023-12-29T05:33:33;50.80;;;41.80;;
44270;SDS011;29963;44.594;11.368;2023-12-29T05:35:59;51.10;;;41.58;;
44270;SDS011;29963;44.594;11.368;2023-12-29T05:38:32;51.25;;;41.75;;
44270;SDS011;29963;44.594;11.368;2023-12-29T05:40:58;55.08;;;43.50;;
44270;SDS011;29963;44.594;11.368;2023-12-29T05:43:26;58.65;;;45.17;;
44270;SDS011;29963;44.594;11.368;2023-12-29T05:45:52;52.33;;;41.67;;
44270;SDS011;29963;44.594;11.368;2023-12-29T05:48:17;57.38;;;41.42;;
44270;SDS011;29963;44.594;11.368;2023-12-29T05:50:43;60.17;;;44.05;;
44270;SDS011;29963;44.594;11.368;2023-12-29T05:53:09;50.67;;;41.58;;
44270;SDS011;29963;44.594;11.368;2023-12-29T05:55:34;58.30;;;45.17;;
44270;SDS011;29963;44.594;11.368;2023-12-29T05:58:01;54.05;;;45.15;;
44270;SDS011;29963;44.594;11.368;2023-12-29T06:00:27;55.85;;;44.40;;
44270;SDS011;29963;44.594;11.368;2023-12-29T06:02:52;57.25;;;44.65;;
44270;SDS011;29963;44.594;11.368;2023-12-29T06:05:18;63.08;;;47.47;;
44270;SDS011;29963;44.594;11.368;2023-12-29T06:07:44;60.85;;;47.22;;
44270;SDS011;29963;44.594;11.368;2023-12-29T06:10:10;61.25;;;47.67;;
44270;SDS011;29963;44.594;11.368;2023-12-29T06:12:36;61.83;;;48.88;;
44270;SDS011;29963;44.594;11.368;2023-12-29T06:15:02;61.05;;;47.15;;
44270;SDS011;29963;44.594;11.368;2023-12-29T06:17:28;71.72;;;48.70;;
44270;SDS011;29963;44.594;11.368;2023-12-29T06:19:54;62.88;;;47.88;;
44270;SDS011;29963;44.594;11.368;2023-12-29T06:22:19;64.80;;;46.22;;
44270;SDS011;29963;44.594;11.368;2023-12-29T06:24:45;63.45;;;49.58;;
44270;SDS011;29963;44.594;11.368;2023-12-29T06:27:11;63.55;;;48.30;;
44270;SDS011;29963;44.594;11.368;2023-12-29T06:29:37;64.57;;;50.03;;
44270;SDS011;29963;44.594;11.368;2023-12-29T06:32:03;59.40;;;46.33;;
44270;SDS011;29963;44.594;11.368;2023-12-29T06:34:29;64.68;;;48.72;;
44270;SDS011;29963;44.594;11.368;2023-12-29T06:36:55;58.65;;;45.88;;
44270;SDS011;29963;44.594;11.368;2023-12-29T06:39:21;57.15;;;45.58;;
44270;SDS011;29963;44.594;11.368;2023-12-29T06:41:47;63.28;;;46.60;;
44270;SDS011;29963;44.594;11.368;2023-12-29T06:44:13;59.58;;;42.90;;
44270;SDS011;29963;44.594;11.368;2023-12-29T06:46:39;57.92;;;45.10;;
44270;SDS011;29963;44.594;11.368;2023-12-29T06:49:07;57.67;;;44.35;;
44270;SDS011;29963;44.594;11.368;2023-12-29T06:51:33;57.47;;;46.28;;
44270;SDS011;29963;44.594;11.368;2023-12-29T06:54:00;54.58;;;41.38;;
44270;SDS011;29963;44.594;11.368;2023-12-29T06:56:26;57.90;;;44.83;;
44270;SDS011;29963;44.594;11.368;2023-12-29T06:58:52;58.92;;;43.40;;
44270;SDS011;29963;44.594;11.368;2023-12-29T07:01:18;58.17;;;43.13;;
44270;SDS011;29963;44.594;11.368;2023-12-29T07:03:43;55.67;;;40.95;;
44270;SDS011;29963;44.594;11.368;2023-12-29T07:06:10;51.45;;;42.10;;
44270;SDS011;29963;44.594;11.368;2023-12-29T07:08:36;49.63;;;41.28;;
44270;SDS011;29963;44.594;11.368;2023-12-29T07:11:02;53.60;;;41.72;;
44270;SDS011;29963;44.594;11.368;2023-12-29T07:13:28;49.20;;;38.97;;
44270;SDS011;29963;44.594;11.368;2023-12-29T07:15:54;49.45;;;38.15;;
44270;SDS011;29963;44.594;11.368;2023-12-29T07:18:20;46.17;;;36.47;;
44270;SDS011;29963;44.594;11.368;2023-12-29T07:20:45;44.00;;;35.15;;
44270;SDS011;29963;44.594;11.368;2023-12-29T07:23:11;50.42;;;34.95;;
44270;SDS011;29963;44.594;11.368;2023-12-29T07:25:40;38.47;;;31.25;;
44270;SDS011;29963;44.594;11.368;2023-12-29T07:28:05;41.78;;;32.75;;
44270;SDS011;29963;44.594;11.368;2023-12-29T07:30:31;43.45;;;32.85;;
44270;SDS011;29963;44.594;11.368;2023-12-29T07:32:57;40.13;;;31.98;;
44270;SDS011;29963;44.594;11.368;2023-12-29T07:35:22;39.83;;;30.48;;
44270;SDS011;29963;44.594;11.368;2023-12-29T07:37:48;37.55;;;28.80;;
44270;SDS011;29963;44.594;11.368;2023-12-29T07:40:14;39.17;;;27.95;;
44270;SDS011;29963;44.594;11.368;2023-12-29T07:42:40;36.03;;;27.08;;
44270;SDS011;29963;44.594;11.368;2023-12-29T07:45:06;36.28;;;28.13;;
44270;SDS011;29963;44.594;11.368;2023-12-29T07:47:32;34.50;;;26.73;;
44270;SDS011;29963;44.594;11.368;2023-12-29T07:49:58;31.17;;;26.20;;
44270;SDS011;29963;44.594;11.368;2023-12-29T07:52:24;32.15;;;25.65;;
44270;SDS011;29963;44.594;11.368;2023-12-29T07:54:50;32.42;;;26.45;;
44270;SDS011;29963;44.594;11.368;2023-12-29T07:57:15;32.25;;;24.20;;
44270;SDS011;29963;44.594;11.368;2023-12-29T07:59:41;31.77;;;24.80;;
44270;SDS011;29963;44.594;11.368;2023-12-29T08:02:07;33.78;;;24.35;;
44270;SDS011;29963;44.594;11.368;2023-12-29T08:04:32;30.88;;;23.63;;
44270;SDS011;29963;44.594;11.368;2023-12-29T08:06:58;32.42;;;26.20;;
44270;SDS011;29963;44.594;11.368;2023-12-29T08:09:25;29.80;;;23.85;;
44270;SDS011;29963;44.594;11.368;2023-12-29T08:11:50;32.72;;;24.92;;
44270;SDS011;29963;44.594;11.368;2023-12-29T08:14:16;38.15;;;27.55;;
44270;SDS011;29963;44.594;11.368;2023-12-29T08:16:42;36.20;;;28.30;;
44270;SDS011;29963;44.594;11.368;2023-12-29T08:19:08;35.85;;;26.63;;
44270;SDS011;29963;44.594;11.368;2023-12-29T08:21:35;40.42;;;30.98;;
44270;SDS011;29963;44.594;11.368;2023-12-29T08:24:03;36.17;;;28.77;;
44270;SDS011;29963;44.594;11.368;2023-12-29T08:26:29;33.95;;;29.33;;
44270;SDS011;29963;44.594;11.368;2023-12-29T08:28:55;41.35;;;32.63;;
44270;SDS011;29963;44.594;11.368;2023-12-29T08:31:20;38.63;;;30.40;;
44270;SDS011;29963;44.594;11.368;2023-12-29T08:33:48;44.30;;;32.50;;
44270;SDS011;29963;44.594;11.368;2023-12-29T08:36:13;46.88;;;33.80;;
44270;SDS011;29963;44.594;11.368;2023-12-29T08:38:42;42.75;;;32.60;;
44270;SDS011;29963;44.594;11.368;2023-12-29T08:41:08;43.13;;;32.53;;
44270;SDS011;29963;44.594;11.368;2023-12-29T08:43:34;45.65;;;32.45;;
44270;SDS011;29963;44.594;11.368;2023-12-29T08:46:01;42.60;;;32.33;;
44270;SDS011;29963;44.594;11.368;2023-12-29T08:48:27;43.83;;;31.67;;
44270;SDS011;29963;44.594;11.368;2023-12-29T08:50:52;42.95;;;32.83;;
44270;SDS011;29963;44.594;11.368;2023-12-29T08:53:18;44.47;;;33.92;;
44270;SDS011;29963;44.594;11.368;2023-12-29T08:55:44;44.35;;;35.03;;
44270;SDS011;29963;44.594;11.368;2023-12-29T08:58:10;43.47;;;34.17;;
44270;SDS011;29963;44.594;11.368;2023-12-29T09:00:37;48.00;;;35.83;;
44270;SDS011;29963;44.594;11.368;2023-12-29T09:03:03;48.35;;;35.08;;
44270;SDS011;29963;44.594;11.368;2023-12-29T09:05:29;46.95;;;35.83;;
44270;SDS011;29963;44.594;11.368;2023-12-29T09:07:55;44.33;;;33.63;;
44270;SDS011;29963;44.594;11.368;2023-12-29T09:10:20;47.72;;;35.92;;
44270;SDS011;29963;44.594;11.368;2023-12-29T09:12:47;47.88;;;38.50;;
44270;SDS011;29963;44.594;11.368;2023-12-29T09:15:13;48.65;;;35.60;;
44270;SDS011;29963;44.594;11.368;2023-12-29T09:17:39;48.65;;;39.00;;
44270;SDS011;29963;44.594;11.368;2023-12-29T09:20:05;52.28;;;37.45;;
44270;SDS011;29963;44.594;11.368;2023-12-29T09:22:33;50.88;;;37.92;;
44270;SDS011;29963;44.594;11.368;2023-12-29T09:24:58;53.75;;;39.75;;
44270;SDS011;29963;44.594;11.368;2023-12-29T09:27:24;52.40;;;39.80;;
44270;SDS011;29963;44.594;11.368;2023-12-29T09:29:50;55.13;;;39.75;;
44270;SDS011;29963;44.594;11.368;2023-12-29T09:32:16;53.10;;;40.33;;
44270;SDS011;29963;44.594;11.368;2023-12-29T09:34:41;49.13;;;38.92;;
44270;SDS011;29963;44.594;11.368;2023-12-29T09:37:07;56.55;;;43.03;;
44270;SDS011;29963;44.594;11.368;2023-12-29T09:39:33;58.22;;;43.15;;
44270;SDS011;29963;44.594;11.368;2023-12-29T09:41:59;54.17;;;41.30;;
44270;SDS011;29963;44.594;11.368;2023-12-29T09:44:26;57.97;;;39.35;;
44270;SDS011;29963;44.594;11.368;2023-12-29T09:46:54;59.03;;;41.35;;
44270;SDS011;29963;44.594;11.368;2023-12-29T09:49:20;59.63;;;42.72;;
44270;SDS011;29963;44.594;11.368;2023-12-29T09:51:46;53.47;;;40.70;;
44270;SDS011;29963;44.594;11.368;2023-12-29T09:54:13;57.20;;;39.80;;
44270;SDS011;29963;44.594;11.368;2023-12-29T09:56:40;59.25;;;41.65;;
44270;SDS011;29963;44.594;11.368;2023-12-29T09:59:08;50.78;;;40.45;;
44270;SDS011;29963;44.594;11.368;2023-12-29T10:01:36;59.97;;;43.35;;
44270;SDS011;29963;44.594;11.368;2023-12-29T10:04:03;56.08;;;41.28;;
44270;SDS011;29963;44.594;11.368;2023-12-29T10:06:30;57.70;;;44.97;;
44270;SDS011;29963;44.594;11.368;2023-12-29T10:09:01;60.05;;;42.63;;
44270;SDS011;29963;44.594;11.368;2023-12-29T10:11:29;52.72;;;41.65;;
44270;SDS011;29963;44.594;11.368;2023-12-29T10:13:58;54.20;;;42.10;;
44270;SDS011;29963;44.594;11.368;2023-12-29T10:16:32;60.47;;;45.95;;
44270;SDS011;29963;44.594;11.368;2023-12-29T10:19:10;55.17;;;41.40;;
44270;SDS011;29963;44.594;11.368;2023-12-29T10:22:03;57.05;;;41.42;;
44270;SDS011;29963;44.594;11.368;2023-12-29T10:24:46;55.80;;;42.63;;
44270;SDS011;29963;44.594;11.368;2023-12-29T10:27:15;55.85;;;41.83;;
44270;SDS011;29963;44.594;11.368;2023-12-29T10:29:40;54.85;;;42.05;;
44270;SDS011;29963;44.594;11.368;2023-12-29T10:32:06;58.40;;;44.78;;
44270;SDS011;29963;44.594;11.368;2023-12-29T10:34:32;59.13;;;43.17;;
44270;SDS011;29963;44.594;11.368;2023-12-29T10:36:58;54.40;;;42.30;;
44270;SDS011;29963;44.594;11.368;2023-12-29T10:39:24;56.53;;;45.40;;
44270;SDS011;29963;44.594;11.368;2023-12-29T10:42:04;56.63;;;43.70;;
44270;SDS011;29963;44.594;11.368;2023-12-29T10:44:32;54.30;;;42.83;;
44270;SDS011;29963;44.594;11.368;2023-12-29T10:47:07;54.72;;;41.60;;
44270;SDS011;29963;44.594;11.368;2023-12-29T10:49:34;52.72;;;40.78;;
44270;SDS011;29963;44.594;11.368;2023-12-29T10:52:00;58.10;;;43.28;;
44270;SDS011;29963;44.594;11.368;2023-12-29T10:54:40;55.05;;;41.83;;
44270;SDS011;29963;44.594;11.368;2023-12-29T10:57:08;55.08;;;40.85;;
44270;SDS011;29963;44.594;11.368;2023-12-29T10:59:36;51.03;;;40.65;;
44270;SDS011;29963;44.594;11.368;2023-12-29T11:02:02;54.38;;;39.47;;
44270;SDS011;29963;44.594;11.368;2023-12-29T11:04:30;50.30;;;38.85;;
44270;SDS011;29963;44.594;11.368;2023-12-29T11:06:57;59.13;;;41.40;;
44270;SDS011;29963;44.594;11.368;2023-12-29T11:09:29;55.35;;;42.03;;
44270;SDS011;29963;44.594;11.368;2023-12-29T11:11:59;54.15;;;38.75;;
44270;SDS011;29963;44.594;11.368;2023-12-29T11:14:26;51.70;;;39.22;;
44270;SDS011;29963;44.594;11.368;2023-12-29T11:16:55;51.80;;;37.58;;
44270;SDS011;29963;44.594;11.368;2023-12-29T11:19:25;44.90;;;36.47;;
44270;SDS011;29963;44.594;11.368;2023-12-29T11:21:53;44.80;;;34.92;;
44270;SDS011;29963;44.594;11.368;2023-12-29T11:24:20;42.78;;;33.28;;
44270;SDS011;29963;44.594;11.368;2023-12-29T11:26:46;43.83;;;33.05;;
44270;SDS011;29963;44.594;11.368;2023-12-29T11:29:13;42.67;;;34.10;;
44270;SDS011;29963;44.594;11.368;2023-12-29T11:31:41;47.25;;;36.60;;
44270;SDS011;29963;44.594;11.368;2023-12-29T11:34:25;44.25;;;35.60;;
44270;SDS011;29963;44.594;11.368;2023-12-29T11:36:57;47.40;;;33.80;;
44270;SDS011;29963;44.594;11.368;2023-12-29T11:39:50;46.47;;;35.80;;
44270;SDS011;29963;44.594;11.368;2023-12-29T11:42:26;52.63;;;36.92;;
44270;SDS011;29963;44.594;11.368;2023-12-29T11:44:56;46.05;;;35.08;;
44270;SDS011;29963;44.594;11.368;2023-12-29T11:47:34;43.67;;;34.75;;
44270;SDS011;29963;44.594;11.368;2023-12-29T11:50:03;41.00;;;32.78;;
44270;SDS011;29963;44.594;11.368;2023-12-29T11:52:36;43.47;;;34.10;;
44270;SDS011;29963;44.594;11.368;2023-12-29T11:55:19;42.45;;;32.60;;
44270;SDS011;29963;44.594;11.368;2023-12-29T11:57:45;46.53;;;34.70;;
44270;SDS011;29963;44.594;11.368;2023-12-29T12:00:11;39.58;;;32.67;;
44270;SDS011;29963;44.594;11.368;2023-12-29T12:02:37;42.35;;;32.67;;
44270;SDS011;29963;44.594;11.368;2023-12-29T12:05:04;50.28;;;35.40;;
44270;SDS011;29963;44.594;11.368;2023-12-29T12:12:45;37.75;;;30.35;;
44270;SDS011;29963;44.594;11.368;2023-12-29T12:17:58;37.72;;;29.38;;
44270;SDS011;29963;44.594;11.368;2023-12-29T12:20:25;38.05;;;29.20;;
44270;SDS011;29963;44.594;11.368;2023-12-29T12:23:00;39.78;;;29.88;;
44270;SDS011;29963;44.594;11.368;2023-12-29T12:25:29;35.95;;;27.50;;
44270;SDS011;29963;44.594;11.368;2023-12-29T12:27:55;38.75;;;29.40;;
44270;SDS011;29963;44.594;11.368;2023-12-29T12:30:22;36.13;;;29.10;;
44270;SDS011;29963;44.594;11.368;2023-12-29T12:32:57;40.92;;;28.80;;
44270;SDS011;29963;44.594;11.368;2023-12-29T12:35:23;35.50;;;29.27;;
44270;SDS011;29963;44.594;11.368;2023-12-29T12:40:47;42.45;;;29.63;;
44270;SDS011;29963;44.594;11.368;2023-12-29T12:43:13;32.20;;;25.48;;
44270;SDS011;29963;44.594;11.368;2023-12-29T12:45:41;35.83;;;26.92;;
44270;SDS011;29963;44.594;11.368;2023-12-29T12:50:46;33.70;;;24.77;;
44270;SDS011;29963;44.594;11.368;2023-12-29T12:53:13;27.10;;;23.70;;
44270;SDS011;29963;44.594;11.368;2023-12-29T12:55:48;27.58;;;23.17;;
44270;SDS011;29963;44.594;11.368;2023-12-29T12:58:16;31.40;;;25.45;;
44270;SDS011;29963;44.594;11.368;2023-12-29T13:00:42;36.40;;;24.05;;
44270;SDS011;29963;44.594;11.368;2023-12-29T13:03:09;31.17;;;24.80;;
44270;SDS011;29963;44.594;11.368;2023-12-29T13:05:38;29.55;;;24.70;;
44270;SDS011;29963;44.594;11.368;2023-12-29T13:08:04;27.88;;;23.23;;
44270;SDS011;29963;44.594;11.368;2023-12-29T13:10:31;29.15;;;23.63;;
44270;SDS011;29963;44.594;11.368;2023-12-29T13:12:57;31.65;;;24.92;;
44270;SDS011;29963;44.594;11.368;2023-12-29T13:15:23;31.35;;;24.92;;
44270;SDS011;29963;44.594;11.368;2023-12-29T13:17:52;30.02;;;23.90;;
44270;SDS011;29963;44.594;11.368;2023-12-29T13:20:18;35.42;;;25.77;;
44270;SDS011;29963;44.594;11.368;2023-12-29T13:22:48;32.30;;;24.17;;
44270;SDS011;29963;44.594;11.368;2023-12-29T13:25:18;30.13;;;23.83;;
44270;SDS011;29963;44.594;11.368;2023-12-29T13:27:49;33.72;;;23.90;;
44270;SDS011;29963;44.594;11.368;2023-12-29T13:30:16;36.90;;;25.45;;
44270;SDS011;29963;44.594;11.368;2023-12-29T13:32:46;32.95;;;25.17;;
44270;SDS011;29963;44.594;11.368;2023-12-29T13:37:52;31.00;;;24.08;;
44270;SDS011;29963;44.594;11.368;2023-12-29T13:40:27;29.92;;;24.90;;
44270;SDS011;29963;44.594;11.368;2023-12-29T13:42:58;40.75;;;25.17;;
44270;SDS011;29963;44.594;11.368;2023-12-29T13:45:27;26.52;;;22.63;;
44270;SDS011;29963;44.594;11.368;2023-12-29T13:47:53;30.55;;;23.98;;
44270;SDS011;29963;44.594;11.368;2023-12-29T13:50:21;25.77;;;23.00;;
44270;SDS011;29963;44.594;11.368;2023-12-29T13:52:47;27.67;;;23.33;;
44270;SDS011;29963;44.594;11.368;2023-12-29T13:55:20;28.65;;;24.27;;
44270;SDS011;29963;44.594;11.368;2023-12-29T13:57:47;26.50;;;23.48;;
44270;SDS011;29963;44.594;11.368;2023-12-29T14:00:20;29.85;;;22.83;;
44270;SDS011;29963;44.594;11.368;2023-12-29T14:05:28;28.42;;;23.95;;
44270;SDS011;29963;44.594;11.368;2023-12-29T14:08:17;28.80;;;23.27;;
44270;SDS011;29963;44.594;11.368;2023-12-29T14:10:46;30.25;;;23.77;;
44270;SDS011;29963;44.594;11.368;2023-12-29T14:13:12;30.88;;;23.40;;
44270;SDS011;29963;44.594;11.368;2023-12-29T14:15:40;29.65;;;25.60;;
44270;SDS011;29963;44.594;11.368;2023-12-29T14:20:57;29.30;;;22.77;;
44270;SDS011;29963;44.594;11.368;2023-12-29T14:23:22;29.05;;;24.55;;
44270;SDS011;29963;44.594;11.368;2023-12-29T14:25:48;30.25;;;24.58;;
44270;SDS011;29963;44.594;11.368;2023-12-29T14:28:15;33.85;;;27.02;;
44270;SDS011;29963;44.594;11.368;2023-12-29T14:30:42;35.28;;;25.48;;
44270;SDS011;29963;44.594;11.368;2023-12-29T14:33:09;35.58;;;25.42;;
44270;SDS011;29963;44.594;11.368;2023-12-29T14:35:34;32.17;;;24.98;;